sensor_id;sensor_type;location;lat;lon;timestamp;temperature;humidity
2571;DHT22;1295;51.130;6.732;2023-02-14T00:02:24;10.20;99.90
2571;DHT22;1295;51.130;6.732;2023-02-14T00:04:50;10.20;99.90
2571;DHT22;1295;51.130;6.732;2023-02-14T00:07:15;10.20;99.90
2571;DHT22;1295;51.130;6.732;2023-02-14T00:09:41;10.20;99.90
2571;DHT22;1295;51.130;6.732;2023-02-14T00:12:07;10.20;99.90
2571;DHT22;1295;51.130;6.732;2023-02-14T00:14:32;10.30;99.90
2571;DHT22;1295;51.130;6.732;2023-02-14T00:17:04;10.00;99.90
2571;DHT22;1295;51.130;6.732;2023-02-14T00:19:30;10.20;99.90
2571;DHT22;1295;51.130;6.732;2023-02-14T00:21:56;10.20;99.90
2571;DHT22;1295;51.130;6.732;2023-02-14T00:24:22;10.30;99.90
2571;DHT22;1295;51.130;6.732;2023-02-14T00:26:47;10.20;99.90
2571;DHT22;1295;51.130;6.732;2023-02-14T00:29:14;9.90;99.90
2571;DHT22;1295;51.130;6.732;2023-02-14T00:31:39;10.10;99.90
2571;DHT22;1295;51.130;6.732;2023-02-14T00:34:05;10.20;99.90
2571;DHT22;1295;51.130;6.732;2023-02-14T00:36:31;10.30;99.90
2571;DHT22;1295;51.130;6.732;2023-02-14T00:38:57;10.20;99.90
2571;DHT22;1295;51.130;6.732;2023-02-14T00:41:23;9.70;99.90
2571;DHT22;1295;51.130;6.732;2023-02-14T00:43:49;9.70;99.90
2571;DHT22;1295;51.130;6.732;2023-02-14T00:46:15;10.10;99.90
2571;DHT22;1295;51.130;6.732;2023-02-14T00:48:40;10.20;99.90
2571;DHT22;1295;51.130;6.732;2023-02-14T00:51:06;10.10;99.90
2571;DHT22;1295;51.130;6.732;2023-02-14T00:53:32;10.10;99.90
2571;DHT22;1295;51.130;6.732;2023-02-14T00:55:57;10.00;99.90
2571;DHT22;1295;51.130;6.732;2023-02-14T00:58:23;10.00;99.90
2571;DHT22;1295;51.130;6.732;2023-02-14T01:00:48;10.00;99.90
2571;DHT22;1295;51.130;6.732;2023-02-14T01:03:14;10.00;99.90
2571;DHT22;1295;51.130;6.732;2023-02-14T01:05:40;9.90;99.90
2571;DHT22;1295;51.130;6.732;2023-02-14T01:08:05;9.90;99.90
2571;DHT22;1295;51.130;6.732;2023-02-14T01:10:31;10.00;99.90
2571;DHT22;1295;51.130;6.732;2023-02-14T01:12:56;10.10;99.90
2571;DHT22;1295;51.130;6.732;2023-02-14T01:15:22;10.10;99.90
2571;DHT22;1295;51.130;6.732;2023-02-14T01:17:47;9.90;99.90
2571;DHT22;1295;51.130;6.732;2023-02-14T01:20:13;10.00;99.90
2571;DHT22;1295;51.130;6.732;2023-02-14T01:58:29;9.90;99.90
2571;DHT22;1295;51.130;6.732;2023-02-14T02:28:34;9.70;99.90
2571;DHT22;1295;51.130;6.732;2023-02-14T02:34:23;9.50;99.90
2571;DHT22;1295;51.130;6.732;2023-02-14T02:36:59;9.50;99.90
2571;DHT22;1295;51.130;6.732;2023-02-14T02:39:33;9.60;99.90
2571;DHT22;1295;51.130;6.732;2023-02-14T02:42:12;9.40;99.90
2571;DHT22;1295;51.130;6.732;2023-02-14T02:45:02;9.40;99.90
2571;DHT22;1295;51.130;6.732;2023-02-14T02:47:40;9.40;99.90
2571;DHT22;1295;51.130;6.732;2023-02-14T02:50:24;9.40;99.90
2571;DHT22;1295;51.130;6.732;2023-02-14T02:53:03;9.40;99.90
2571;DHT22;1295;51.130;6.732;2023-02-14T02:55:37;9.40;99.90
2571;DHT22;1295;51.130;6.732;2023-02-14T02:58:00;9.60;99.90
2571;DHT22;1295;51.130;6.732;2023-02-14T03:00:25;9.30;99.90
2571;DHT22;1295;51.130;6.732;2023-02-14T03:02:52;9.50;99.90
2571;DHT22;1295;51.130;6.732;2023-02-14T03:05:23;9.50;99.90
2571;DHT22;1295;51.130;6.732;2023-02-14T03:07:49;9.10;99.90
2571;DHT22;1295;51.130;6.732;2023-02-14T03:10:28;9.30;99.90
2571;DHT22;1295;51.130;6.732;2023-02-14T03:12:59;9.40;99.90
2571;DHT22;1295;51.130;6.732;2023-02-14T03:16:49;9.40;99.90
2571;DHT22;1295;51.130;6.732;2023-02-14T03:18:33;9.30;99.90
2571;DHT22;1295;51.130;6.732;2023-02-14T03:23:38;9.50;99.90
2571;DHT22;1295;51.130;6.732;2023-02-14T03:26:22;9.30;99.90
2571;DHT22;1295;51.130;6.732;2023-02-14T03:28:56;9.20;99.90
2571;DHT22;1295;51.130;6.732;2023-02-14T03:31:29;9.30;99.90
2571;DHT22;1295;51.130;6.732;2023-02-14T03:33:58;9.30;99.90
2571;DHT22;1295;51.130;6.732;2023-02-14T03:36:24;9.00;99.90
2571;DHT22;1295;51.130;6.732;2023-02-14T03:38:53;9.20;99.90
2571;DHT22;1295;51.130;6.732;2023-02-14T03:41:18;8.90;99.90
2571;DHT22;1295;51.130;6.732;2023-02-14T03:43:43;8.90;99.90
2571;DHT22;1295;51.130;6.732;2023-02-14T03:46:12;9.30;99.90
2571;DHT22;1295;51.130;6.732;2023-02-14T03:48:35;9.30;99.90
2571;DHT22;1295;51.130;6.732;2023-02-14T03:51:04;9.30;99.90
2571;DHT22;1295;51.130;6.732;2023-02-14T03:53:32;9.10;99.90
2571;DHT22;1295;51.130;6.732;2023-02-14T03:56:02;9.10;99.90
2571;DHT22;1295;51.130;6.732;2023-02-14T03:58:29;9.10;99.90
2571;DHT22;1295;51.130;6.732;2023-02-14T04:00:56;9.20;99.90
2571;DHT22;1295;51.130;6.732;2023-02-14T04:03:19;9.30;99.90
2571;DHT22;1295;51.130;6.732;2023-02-14T04:05:46;9.00;99.90
2571;DHT22;1295;51.130;6.732;2023-02-14T04:08:15;9.00;99.90
2571;DHT22;1295;51.130;6.732;2023-02-14T04:10:38;9.00;99.90
2571;DHT22;1295;51.130;6.732;2023-02-14T04:13:03;9.10;99.90
2571;DHT22;1295;51.130;6.732;2023-02-14T04:15:29;9.00;99.90
2571;DHT22;1295;51.130;6.732;2023-02-14T04:17:55;8.90;99.90
2571;DHT22;1295;51.130;6.732;2023-02-14T04:20:28;8.90;99.90
2571;DHT22;1295;51.130;6.732;2023-02-14T04:22:53;8.90;99.90
2571;DHT22;1295;51.130;6.732;2023-02-14T04:25:21;8.90;99.90
2571;DHT22;1295;51.130;6.732;2023-02-14T04:27:45;8.90;99.90
2571;DHT22;1295;51.130;6.732;2023-02-14T04:30:11;8.90;99.90
2571;DHT22;1295;51.130;6.732;2023-02-14T04:32:38;9.00;99.90
2571;DHT22;1295;51.130;6.732;2023-02-14T04:35:03;9.00;99.90
2571;DHT22;1295;51.130;6.732;2023-02-14T04:37:29;8.90;99.90
2571;DHT22;1295;51.130;6.732;2023-02-14T04:39:55;9.00;99.90
2571;DHT22;1295;51.130;6.732;2023-02-14T04:42:20;9.00;99.90
2571;DHT22;1295;51.130;6.732;2023-02-14T04:44:46;8.80;99.90
2571;DHT22;1295;51.130;6.732;2023-02-14T04:47:11;8.70;99.90
2571;DHT22;1295;51.130;6.732;2023-02-14T04:49:38;9.00;99.90
2571;DHT22;1295;51.130;6.732;2023-02-14T04:52:04;9.00;99.90
2571;DHT22;1295;51.130;6.732;2023-02-14T04:54:29;8.70;99.90
2571;DHT22;1295;51.130;6.732;2023-02-14T04:56:55;8.90;99.90
2571;DHT22;1295;51.130;6.732;2023-02-14T04:59:20;9.00;99.90
2571;DHT22;1295;51.130;6.732;2023-02-14T05:01:46;8.90;99.90
2571;DHT22;1295;51.130;6.732;2023-02-14T05:04:12;8.90;99.90
2571;DHT22;1295;51.130;6.732;2023-02-14T05:06:37;8.90;99.90
2571;DHT22;1295;51.130;6.732;2023-02-14T05:09:04;8.70;99.90
2571;DHT22;1295;51.130;6.732;2023-02-14T05:11:30;8.70;99.90
2571;DHT22;1295;51.130;6.732;2023-02-14T05:13:55;8.60;99.90
2571;DHT22;1295;51.130;6.732;2023-02-14T05:16:21;8.80;99.90
2571;DHT22;1295;51.130;6.732;2023-02-14T05:18:46;8.60;99.90
2571;DHT22;1295;51.130;6.732;2023-02-14T05:21:12;8.80;99.90
2571;DHT22;1295;51.130;6.732;2023-02-14T05:23:38;8.50;99.90
2571;DHT22;1295;51.130;6.732;2023-02-14T05:26:03;8.70;99.90
2571;DHT22;1295;51.130;6.732;2023-02-14T05:28:29;8.60;99.90
2571;DHT22;1295;51.130;6.732;2023-02-14T05:30:55;8.40;99.90
2571;DHT22;1295;51.130;6.732;2023-02-14T05:33:21;8.40;99.90
2571;DHT22;1295;51.130;6.732;2023-02-14T05:35:47;8.60;99.90
2571;DHT22;1295;51.130;6.732;2023-02-14T05:38:13;8.60;99.90
2571;DHT22;1295;51.130;6.732;2023-02-14T05:40:40;8.40;99.90
2571;DHT22;1295;51.130;6.732;2023-02-14T05:43:06;8.60;99.90
2571;DHT22;1295;51.130;6.732;2023-02-14T05:45:31;8.60;99.90
2571;DHT22;1295;51.130;6.732;2023-02-14T05:47:57;8.70;99.90
2571;DHT22;1295;51.130;6.732;2023-02-14T05:50:23;8.60;99.90
2571;DHT22;1295;51.130;6.732;2023-02-14T05:52:48;8.20;99.90
2571;DHT22;1295;51.130;6.732;2023-02-14T05:55:14;8.30;99.90
2571;DHT22;1295;51.130;6.732;2023-02-14T05:57:40;8.50;99.90
2571;DHT22;1295;51.130;6.732;2023-02-14T06:00:07;8.50;99.90
2571;DHT22;1295;51.130;6.732;2023-02-14T06:02:33;8.50;99.90
2571;DHT22;1295;51.130;6.732;2023-02-14T06:04:59;8.40;99.90
2571;DHT22;1295;51.130;6.732;2023-02-14T06:07:25;8.50;99.90
2571;DHT22;1295;51.130;6.732;2023-02-14T06:09:51;8.60;99.90
2571;DHT22;1295;51.130;6.732;2023-02-14T06:12:16;8.60;99.90
2571;DHT22;1295;51.130;6.732;2023-02-14T06:14:43;8.60;99.90
2571;DHT22;1295;51.130;6.732;2023-02-14T06:17:08;8.60;99.90
2571;DHT22;1295;51.130;6.732;2023-02-14T06:19:34;8.40;99.90
2571;DHT22;1295;51.130;6.732;2023-02-14T06:22:00;7.70;99.90
2571;DHT22;1295;51.130;6.732;2023-02-14T06:24:26;7.70;99.90
2571;DHT22;1295;51.130;6.732;2023-02-14T06:26:57;8.40;99.90
2571;DHT22;1295;51.130;6.732;2023-02-14T06:29:27;8.50;99.90
2571;DHT22;1295;51.130;6.732;2023-02-14T06:31:53;8.40;99.90
2571;DHT22;1295;51.130;6.732;2023-02-14T06:34:18;8.00;99.90
2571;DHT22;1295;51.130;6.732;2023-02-14T06:36:44;8.50;99.90
2571;DHT22;1295;51.130;6.732;2023-02-14T06:39:10;7.60;99.90
2571;DHT22;1295;51.130;6.732;2023-02-14T06:41:35;8.00;99.90
2571;DHT22;1295;51.130;6.732;2023-02-14T06:44:01;8.00;99.90
2571;DHT22;1295;51.130;6.732;2023-02-14T06:46:27;8.40;99.90
2571;DHT22;1295;51.130;6.732;2023-02-14T06:48:53;8.40;99.90
2571;DHT22;1295;51.130;6.732;2023-02-14T06:51:19;7.90;99.90
2571;DHT22;1295;51.130;6.732;2023-02-14T06:53:45;7.90;99.90
2571;DHT22;1295;51.130;6.732;2023-02-14T06:56:11;8.50;99.90
2571;DHT22;1295;51.130;6.732;2023-02-14T06:58:43;8.50;99.90
2571;DHT22;1295;51.130;6.732;2023-02-14T07:01:09;8.30;99.90
2571;DHT22;1295;51.130;6.732;2023-02-14T07:03:35;8.30;99.90
2571;DHT22;1295;51.130;6.732;2023-02-14T07:06:00;8.50;99.90
2571;DHT22;1295;51.130;6.732;2023-02-14T07:08:26;8.40;99.90
2571;DHT22;1295;51.130;6.732;2023-02-14T07:10:56;8.30;99.90
2571;DHT22;1295;51.130;6.732;2023-02-14T07:13:21;8.40;99.90
2571;DHT22;1295;51.130;6.732;2023-02-14T07:15:47;8.10;99.90
2571;DHT22;1295;51.130;6.732;2023-02-14T07:18:12;8.30;99.90
2571;DHT22;1295;51.130;6.732;2023-02-14T07:20:38;8.00;99.90
2571;DHT22;1295;51.130;6.732;2023-02-14T07:23:03;8.20;99.90
2571;DHT22;1295;51.130;6.732;2023-02-14T07:25:29;7.90;99.90
2571;DHT22;1295;51.130;6.732;2023-02-14T07:27:55;8.20;99.90
2571;DHT22;1295;51.130;6.732;2023-02-14T07:30:20;7.70;99.90
2571;DHT22;1295;51.130;6.732;2023-02-14T07:32:46;8.00;99.90
2571;DHT22;1295;51.130;6.732;2023-02-14T07:35:12;8.20;99.90
2571;DHT22;1295;51.130;6.732;2023-02-14T07:37:38;8.20;99.90
2571;DHT22;1295;51.130;6.732;2023-02-14T07:40:05;8.00;99.90
2571;DHT22;1295;51.130;6.732;2023-02-14T07:42:31;8.30;99.90
2571;DHT22;1295;51.130;6.732;2023-02-14T07:44:57;8.20;99.90
2571;DHT22;1295;51.130;6.732;2023-02-14T07:47:23;8.10;99.90
2571;DHT22;1295;51.130;6.732;2023-02-14T07:49:48;8.00;99.90
2571;DHT22;1295;51.130;6.732;2023-02-14T07:52:14;8.00;99.90
2571;DHT22;1295;51.130;6.732;2023-02-14T07:54:39;7.90;99.90
2571;DHT22;1295;51.130;6.732;2023-02-14T07:57:06;8.20;99.90
2571;DHT22;1295;51.130;6.732;2023-02-14T07:59:31;8.20;99.90
2571;DHT22;1295;51.130;6.732;2023-02-14T08:01:57;8.00;99.90
2571;DHT22;1295;51.130;6.732;2023-02-14T08:04:23;8.00;99.90
2571;DHT22;1295;51.130;6.732;2023-02-14T08:06:50;7.90;99.90
2571;DHT22;1295;51.130;6.732;2023-02-14T08:09:16;7.90;99.90
2571;DHT22;1295;51.130;6.732;2023-02-14T08:11:41;8.20;99.90
2571;DHT22;1295;51.130;6.732;2023-02-14T08:14:14;8.00;99.90
2571;DHT22;1295;51.130;6.732;2023-02-14T08:16:40;8.00;99.90
2571;DHT22;1295;51.130;6.732;2023-02-14T08:19:06;8.00;99.90
2571;DHT22;1295;51.130;6.732;2023-02-14T08:21:31;8.10;99.90
2571;DHT22;1295;51.130;6.732;2023-02-14T08:23:57;8.20;99.90
2571;DHT22;1295;51.130;6.732;2023-02-14T08:26:23;8.00;99.90
2571;DHT22;1295;51.130;6.732;2023-02-14T08:28:48;7.80;99.90
2571;DHT22;1295;51.130;6.732;2023-02-14T08:31:20;7.50;99.90
2571;DHT22;1295;51.130;6.732;2023-02-14T08:33:39;8.10;99.90
2571;DHT22;1295;51.130;6.732;2023-02-14T08:36:05;8.40;99.90
2571;DHT22;1295;51.130;6.732;2023-02-14T08:38:31;8.50;99.90
2571;DHT22;1295;51.130;6.732;2023-02-14T08:40:59;8.70;99.90
2571;DHT22;1295;51.130;6.732;2023-02-14T08:43:24;8.80;99.90
2571;DHT22;1295;51.130;6.732;2023-02-14T08:45:51;9.00;99.90
2571;DHT22;1295;51.130;6.732;2023-02-14T08:48:16;9.10;99.90
2571;DHT22;1295;51.130;6.732;2023-02-14T08:50:42;9.10;99.90
2571;DHT22;1295;51.130;6.732;2023-02-14T08:53:08;9.10;99.90
2571;DHT22;1295;51.130;6.732;2023-02-14T08:55:33;9.10;99.90
2571;DHT22;1295;51.130;6.732;2023-02-14T08:57:59;9.20;99.90
2571;DHT22;1295;51.130;6.732;2023-02-14T09:00:24;9.40;99.90
2571;DHT22;1295;51.130;6.732;2023-02-14T09:02:50;9.40;99.90
2571;DHT22;1295;51.130;6.732;2023-02-14T09:05:16;9.60;99.90
2571;DHT22;1295;51.130;6.732;2023-02-14T09:07:41;9.90;99.90
2571;DHT22;1295;51.130;6.732;2023-02-14T09:10:08;9.80;99.90
2571;DHT22;1295;51.130;6.732;2023-02-14T09:12:34;10.00;99.90
2571;DHT22;1295;51.130;6.732;2023-02-14T09:14:59;10.00;99.90
2571;DHT22;1295;51.130;6.732;2023-02-14T09:17:25;10.10;99.90
2571;DHT22;1295;51.130;6.732;2023-02-14T09:19:50;10.50;99.90
2571;DHT22;1295;51.130;6.732;2023-02-14T09:22:17;10.20;99.90
2571;DHT22;1295;51.130;6.732;2023-02-14T09:24:42;9.90;99.90
2571;DHT22;1295;51.130;6.732;2023-02-14T09:27:08;10.00;99.90
2571;DHT22;1295;51.130;6.732;2023-02-14T09:29:34;10.30;99.90
2571;DHT22;1295;51.130;6.732;2023-02-14T09:31:59;10.30;99.90
2571;DHT22;1295;51.130;6.732;2023-02-14T09:34:26;10.50;99.90
2571;DHT22;1295;51.130;6.732;2023-02-14T09:36:52;10.30;99.90
2571;DHT22;1295;51.130;6.732;2023-02-14T09:39:24;10.30;99.90
2571;DHT22;1295;51.130;6.732;2023-02-14T09:42:03;10.30;99.90
2571;DHT22;1295;51.130;6.732;2023-02-14T09:44:35;10.20;99.90
2571;DHT22;1295;51.130;6.732;2023-02-14T09:47:01;10.10;99.90
2571;DHT22;1295;51.130;6.732;2023-02-14T09:49:31;10.30;99.90
2571;DHT22;1295;51.130;6.732;2023-02-14T09:51:56;10.80;99.90
2571;DHT22;1295;51.130;6.732;2023-02-14T09:54:23;11.00;99.90
2571;DHT22;1295;51.130;6.732;2023-02-14T09:56:51;10.90;99.90
2571;DHT22;1295;51.130;6.732;2023-02-14T09:59:27;10.70;99.90
2571;DHT22;1295;51.130;6.732;2023-02-14T10:01:52;10.60;99.90
2571;DHT22;1295;51.130;6.732;2023-02-14T10:04:22;10.80;99.90
2571;DHT22;1295;51.130;6.732;2023-02-14T10:06:56;11.00;99.90
2571;DHT22;1295;51.130;6.732;2023-02-14T10:09:42;11.40;99.90
2571;DHT22;1295;51.130;6.732;2023-02-14T10:12:04;11.80;99.90
2571;DHT22;1295;51.130;6.732;2023-02-14T10:14:31;11.60;99.90
2571;DHT22;1295;51.130;6.732;2023-02-14T10:17:16;12.00;99.90
2571;DHT22;1295;51.130;6.732;2023-02-14T10:19:40;11.30;99.90
2571;DHT22;1295;51.130;6.732;2023-02-14T10:22:07;10.70;99.90
2571;DHT22;1295;51.130;6.732;2023-02-14T10:24:36;11.10;99.90
2571;DHT22;1295;51.130;6.732;2023-02-14T10:27:02;11.10;99.90
2571;DHT22;1295;51.130;6.732;2023-02-14T10:29:27;11.80;99.90
2571;DHT22;1295;51.130;6.732;2023-02-14T10:31:57;12.10;99.90
2571;DHT22;1295;51.130;6.732;2023-02-14T10:34:40;11.50;99.90
2571;DHT22;1295;51.130;6.732;2023-02-14T10:39:59;11.50;99.90
2571;DHT22;1295;51.130;6.732;2023-02-14T10:42:43;11.40;99.90
2571;DHT22;1295;51.130;6.732;2023-02-14T10:48:18;12.40;99.90
2571;DHT22;1295;51.130;6.732;2023-02-14T10:50:49;12.90;99.90
2571;DHT22;1295;51.130;6.732;2023-02-14T10:53:17;11.60;99.90
2571;DHT22;1295;51.130;6.732;2023-02-14T10:55:43;11.90;99.90
2571;DHT22;1295;51.130;6.732;2023-02-14T10:58:06;12.40;99.90
2571;DHT22;1295;51.130;6.732;2023-02-14T11:00:33;12.70;99.90
2571;DHT22;1295;51.130;6.732;2023-02-14T11:02:58;12.00;99.90
2571;DHT22;1295;51.130;6.732;2023-02-14T11:05:43;12.00;99.90
2571;DHT22;1295;51.130;6.732;2023-02-14T11:08:27;11.80;99.90
2571;DHT22;1295;51.130;6.732;2023-02-14T11:10:54;12.00;99.90
2571;DHT22;1295;51.130;6.732;2023-02-14T11:13:29;11.90;99.90
2571;DHT22;1295;51.130;6.732;2023-02-14T11:15:53;11.70;99.90
2571;DHT22;1295;51.130;6.732;2023-02-14T11:18:25;11.70;99.90
2571;DHT22;1295;51.130;6.732;2023-02-14T11:20:58;11.70;99.90
2571;DHT22;1295;51.130;6.732;2023-02-14T11:23:23;12.00;99.90
2571;DHT22;1295;51.130;6.732;2023-02-14T11:25:50;12.50;99.90
2571;DHT22;1295;51.130;6.732;2023-02-14T11:28:14;12.50;99.90
2571;DHT22;1295;51.130;6.732;2023-02-14T11:30:41;13.30;99.90
2571;DHT22;1295;51.130;6.732;2023-02-14T11:33:10;13.30;99.90
2571;DHT22;1295;51.130;6.732;2023-02-14T11:35:34;13.00;99.90
2571;DHT22;1295;51.130;6.732;2023-02-14T11:38:01;12.70;99.90
2571;DHT22;1295;51.130;6.732;2023-02-14T11:40:27;12.60;99.90
2571;DHT22;1295;51.130;6.732;2023-02-14T11:42:51;12.70;99.90
2571;DHT22;1295;51.130;6.732;2023-02-14T11:45:28;11.70;99.90
2571;DHT22;1295;51.130;6.732;2023-02-14T11:48:21;11.70;99.90
2571;DHT22;1295;51.130;6.732;2023-02-14T11:50:55;11.70;99.90
2571;DHT22;1295;51.130;6.732;2023-02-14T11:53:21;14.00;99.90
2571;DHT22;1295;51.130;6.732;2023-02-14T11:55:49;13.80;99.90
2571;DHT22;1295;51.130;6.732;2023-02-14T11:58:16;14.50;99.90
2571;DHT22;1295;51.130;6.732;2023-02-14T12:00:36;17.40;99.90
2571;DHT22;1295;51.130;6.732;2023-02-14T12:03:02;17.00;99.90
2571;DHT22;1295;51.130;6.732;2023-02-14T12:05:32;14.50;99.90
2571;DHT22;1295;51.130;6.732;2023-02-14T12:07:57;12.50;99.90
2571;DHT22;1295;51.130;6.732;2023-02-14T12:10:27;13.10;99.90
2571;DHT22;1295;51.130;6.732;2023-02-14T12:13:03;15.50;99.90
2571;DHT22;1295;51.130;6.732;2023-02-14T12:15:37;13.10;99.90
2571;DHT22;1295;51.130;6.732;2023-02-14T12:18:28;12.90;99.90
2571;DHT22;1295;51.130;6.732;2023-02-14T12:24:09;12.80;99.90
2571;DHT22;1295;51.130;6.732;2023-02-14T12:26:34;12.30;99.90
2571;DHT22;1295;51.130;6.732;2023-02-14T12:29:05;15.10;99.90
2571;DHT22;1295;51.130;6.732;2023-02-14T12:31:28;13.60;99.90
2571;DHT22;1295;51.130;6.732;2023-02-14T12:33:54;13.60;99.90
2571;DHT22;1295;51.130;6.732;2023-02-14T12:36:33;12.10;99.90
2571;DHT22;1295;51.130;6.732;2023-02-14T12:39:03;12.80;99.90
2571;DHT22;1295;51.130;6.732;2023-02-14T12:41:36;11.90;99.90
2571;DHT22;1295;51.130;6.732;2023-02-14T12:44:05;13.00;99.90
2571;DHT22;1295;51.130;6.732;2023-02-14T12:46:36;13.00;99.90
2571;DHT22;1295;51.130;6.732;2023-02-14T12:49:36;12.50;99.90
2571;DHT22;1295;51.130;6.732;2023-02-14T12:52:11;14.60;99.90
2571;DHT22;1295;51.130;6.732;2023-02-14T12:54:54;12.90;99.90
2571;DHT22;1295;51.130;6.732;2023-02-14T12:57:28;14.30;99.90
2571;DHT22;1295;51.130;6.732;2023-02-14T13:00:10;13.00;99.90
2571;DHT22;1295;51.130;6.732;2023-02-14T13:05:20;14.00;99.90
2571;DHT22;1295;51.130;6.732;2023-02-14T13:07:53;14.10;99.90
2571;DHT22;1295;51.130;6.732;2023-02-14T13:10:22;15.40;99.90
2571;DHT22;1295;51.130;6.732;2023-02-14T13:15:41;13.20;99.90
2571;DHT22;1295;51.130;6.732;2023-02-14T13:18:09;13.60;99.90
2571;DHT22;1295;51.130;6.732;2023-02-14T13:20:37;13.50;99.90
2571;DHT22;1295;51.130;6.732;2023-02-14T13:23:04;12.40;99.90
2571;DHT22;1295;51.130;6.732;2023-02-14T13:25:28;12.90;99.90
2571;DHT22;1295;51.130;6.732;2023-02-14T13:27:53;12.70;99.90
2571;DHT22;1295;51.130;6.732;2023-02-14T13:30:33;13.90;99.90
2571;DHT22;1295;51.130;6.732;2023-02-14T13:33:01;13.90;99.90
2571;DHT22;1295;51.130;6.732;2023-02-14T13:35:25;13.70;99.90
2571;DHT22;1295;51.130;6.732;2023-02-14T13:37:52;13.90;99.90
2571;DHT22;1295;51.130;6.732;2023-02-14T13:40:17;12.90;99.90
2571;DHT22;1295;51.130;6.732;2023-02-14T13:42:50;12.70;99.90
2571;DHT22;1295;51.130;6.732;2023-02-14T13:45:51;15.40;99.90
2571;DHT22;1295;51.130;6.732;2023-02-14T13:48:19;15.40;99.90
2571;DHT22;1295;51.130;6.732;2023-02-14T13:51:04;14.90;99.90
2571;DHT22;1295;51.130;6.732;2023-02-14T13:53:40;14.80;99.90
2571;DHT22;1295;51.130;6.732;2023-02-14T13:56:29;15.50;99.90
2571;DHT22;1295;51.130;6.732;2023-02-14T13:58:31;16.00;99.90
2571;DHT22;1295;51.130;6.732;2023-02-14T14:00:56;16.20;99.90
2571;DHT22;1295;51.130;6.732;2023-02-14T14:06:14;13.60;99.90
2571;DHT22;1295;51.130;6.732;2023-02-14T14:08:43;13.90;99.90
2571;DHT22;1295;51.130;6.732;2023-02-14T14:13:56;14.60;99.90
2571;DHT22;1295;51.130;6.732;2023-02-14T14:16:31;14.30;99.90
2571;DHT22;1295;51.130;6.732;2023-02-14T14:22:14;13.70;99.90
2571;DHT22;1295;51.130;6.732;2023-02-14T14:24:40;13.60;99.90
2571;DHT22;1295;51.130;6.732;2023-02-14T14:27:16;13.60;99.90
2571;DHT22;1295;51.130;6.732;2023-02-14T14:29:48;13.40;99.90
2571;DHT22;1295;51.130;6.732;2023-02-14T14:32:19;13.40;99.90
2571;DHT22;1295;51.130;6.732;2023-02-14T14:34:48;13.30;99.90
2571;DHT22;1295;51.130;6.732;2023-02-14T14:37:15;12.90;99.90
2571;DHT22;1295;51.130;6.732;2023-02-14T14:39:41;13.00;99.90
2571;DHT22;1295;51.130;6.732;2023-02-14T14:42:08;13.00;99.90
2571;DHT22;1295;51.130;6.732;2023-02-14T14:44:33;12.50;99.90
2571;DHT22;1295;51.130;6.732;2023-02-14T14:46:59;12.80;99.90
2571;DHT22;1295;51.130;6.732;2023-02-14T14:49:24;12.60;99.90
2571;DHT22;1295;51.130;6.732;2023-02-14T14:51:50;12.50;99.90
2571;DHT22;1295;51.130;6.732;2023-02-14T14:54:17;12.90;99.90
2571;DHT22;1295;51.130;6.732;2023-02-14T14:56:47;12.90;99.90
2571;DHT22;1295;51.130;6.732;2023-02-14T14:59:27;12.60;99.90
2571;DHT22;1295;51.130;6.732;2023-02-14T15:01:53;12.50;99.90
2571;DHT22;1295;51.130;6.732;2023-02-14T15:04:24;12.40;99.90
2571;DHT22;1295;51.130;6.732;2023-02-14T15:06:49;12.40;99.90
2571;DHT22;1295;51.130;6.732;2023-02-14T15:09:19;12.40;99.90
2571;DHT22;1295;51.130;6.732;2023-02-14T15:11:44;12.60;99.90
2571;DHT22;1295;51.130;6.732;2023-02-14T15:14:17;12.50;99.90
2571;DHT22;1295;51.130;6.732;2023-02-14T15:16:44;13.00;99.90
2571;DHT22;1295;51.130;6.732;2023-02-14T15:19:10;13.00;99.90
2571;DHT22;1295;51.130;6.732;2023-02-14T15:21:35;12.70;99.90
2571;DHT22;1295;51.130;6.732;2023-02-14T15:24:02;12.70;99.90
2571;DHT22;1295;51.130;6.732;2023-02-14T15:26:28;12.60;99.90
2571;DHT22;1295;51.130;6.732;2023-02-14T15:28:55;12.70;99.90
2571;DHT22;1295;51.130;6.732;2023-02-14T15:31:20;12.70;99.90
2571;DHT22;1295;51.130;6.732;2023-02-14T15:33:45;12.90;99.90
2571;DHT22;1295;51.130;6.732;2023-02-14T15:36:14;12.70;99.90
2571;DHT22;1295;51.130;6.732;2023-02-14T15:38:38;12.70;99.90
2571;DHT22;1295;51.130;6.732;2023-02-14T15:41:02;12.80;99.90
2571;DHT22;1295;51.130;6.732;2023-02-14T15:43:30;12.80;99.90
2571;DHT22;1295;51.130;6.732;2023-02-14T15:45:57;12.60;99.90
2571;DHT22;1295;51.130;6.732;2023-02-14T15:48:23;12.60;99.90
2571;DHT22;1295;51.130;6.732;2023-02-14T15:50:49;13.00;99.90
2571;DHT22;1295;51.130;6.732;2023-02-14T15:56:03;13.30;99.90
2571;DHT22;1295;51.130;6.732;2023-02-14T15:58:28;13.40;99.90
2571;DHT22;1295;51.130;6.732;2023-02-14T16:00:53;13.60;99.90
2571;DHT22;1295;51.130;6.732;2023-02-14T16:03:20;13.50;99.90
2571;DHT22;1295;51.130;6.732;2023-02-14T16:05:45;13.30;99.90
2571;DHT22;1295;51.130;6.732;2023-02-14T16:08:25;13.10;99.90
2571;DHT22;1295;51.130;6.732;2023-02-14T16:11:02;12.80;99.90
2571;DHT22;1295;51.130;6.732;2023-02-14T16:13:30;12.70;99.90
2571;DHT22;1295;51.130;6.732;2023-02-14T16:16:05;12.60;99.90
2571;DHT22;1295;51.130;6.732;2023-02-14T16:18:41;12.80;99.90
2571;DHT22;1295;51.130;6.732;2023-02-14T16:21:22;12.70;99.90
2571;DHT22;1295;51.130;6.732;2023-02-14T16:26:27;12.60;99.90
2571;DHT22;1295;51.130;6.732;2023-02-14T16:28:53;12.60;99.90
2571;DHT22;1295;51.130;6.732;2023-02-14T16:31:18;12.50;99.90
2571;DHT22;1295;51.130;6.732;2023-02-14T16:33:44;12.40;99.90
2571;DHT22;1295;51.130;6.732;2023-02-14T16:36:22;12.10;99.90
2571;DHT22;1295;51.130;6.732;2023-02-14T16:38:48;11.90;99.90
2571;DHT22;1295;51.130;6.732;2023-02-14T16:41:17;11.90;99.90
2571;DHT22;1295;51.130;6.732;2023-02-14T16:43:42;11.90;99.90
2571;DHT22;1295;51.130;6.732;2023-02-14T16:46:12;11.80;99.90
2571;DHT22;1295;51.130;6.732;2023-02-14T16:48:36;11.70;99.90
2571;DHT22;1295;51.130;6.732;2023-02-14T16:51:02;11.60;99.90
2571;DHT22;1295;51.130;6.732;2023-02-14T16:53:29;11.70;99.90
2571;DHT22;1295;51.130;6.732;2023-02-14T16:55:55;11.70;99.90
2571;DHT22;1295;51.130;6.732;2023-02-14T16:58:22;11.80;99.90
2571;DHT22;1295;51.130;6.732;2023-02-14T17:00:46;11.80;99.90
2571;DHT22;1295;51.130;6.732;2023-02-14T17:03:12;11.80;99.90
2571;DHT22;1295;51.130;6.732;2023-02-14T17:05:38;11.80;99.90
2571;DHT22;1295;51.130;6.732;2023-02-14T17:08:05;11.80;99.90
2571;DHT22;1295;51.130;6.732;2023-02-14T17:10:30;11.80;99.90
2571;DHT22;1295;51.130;6.732;2023-02-14T17:12:56;11.80;99.90
2571;DHT22;1295;51.130;6.732;2023-02-14T17:15:21;11.80;99.90
2571;DHT22;1295;51.130;6.732;2023-02-14T17:17:47;11.80;99.90
2571;DHT22;1295;51.130;6.732;2023-02-14T17:20:13;11.70;99.90
2571;DHT22;1295;51.130;6.732;2023-02-14T17:22:39;11.70;99.90
2571;DHT22;1295;51.130;6.732;2023-02-14T17:25:05;11.70;99.90
2571;DHT22;1295;51.130;6.732;2023-02-14T17:27:31;11.70;99.90
2571;DHT22;1295;51.130;6.732;2023-02-14T17:29:57;11.70;99.90
2571;DHT22;1295;51.130;6.732;2023-02-14T17:32:23;11.80;99.90
2571;DHT22;1295;51.130;6.732;2023-02-14T17:34:49;11.70;99.90
2571;DHT22;1295;51.130;6.732;2023-02-14T17:37:15;11.80;99.90
2571;DHT22;1295;51.130;6.732;2023-02-14T17:39:40;11.80;99.90
2571;DHT22;1295;51.130;6.732;2023-02-14T17:42:06;11.80;99.90
2571;DHT22;1295;51.130;6.732;2023-02-14T17:44:32;11.80;99.90
2571;DHT22;1295;51.130;6.732;2023-02-14T17:46:58;11.70;99.90
2571;DHT22;1295;51.130;6.732;2023-02-14T17:49:24;11.70;99.90
2571;DHT22;1295;51.130;6.732;2023-02-14T17:51:50;11.70;99.90
2571;DHT22;1295;51.130;6.732;2023-02-14T17:54:15;11.70;99.90